sensor_id;sensor_type;location;lat;lon;timestamp;P1;durP1;ratioP1;P2;durP2;ratioP2
69485;SDS011;56677;51.710;5.366;2023-07-31T00:01:58;4.25;;;1.75;;
69485;SDS011;56677;51.710;5.366;2023-07-31T00:04:23;3.87;;;1.63;;
69485;SDS011;56677;51.710;5.366;2023-07-31T00:06:48;4.47;;;2.03;;
69485;SDS011;56677;51.710;5.366;2023-07-31T00:09:13;4.78;;;1.90;;
69485;SDS011;56677;51.710;5.366;2023-07-31T00:11:38;6.53;;;2.42;;
69485;SDS011;56677;51.710;5.366;2023-07-31T00:14:03;5.00;;;1.95;;
69485;SDS011;56677;51.710;5.366;2023-07-31T00:16:28;5.67;;;2.27;;
69485;SDS011;56677;51.710;5.366;2023-07-31T00:18:54;6.87;;;2.20;;
69485;SDS011;56677;51.710;5.366;2023-07-31T00:21:19;5.72;;;2.85;;
69485;SDS011;56677;51.710;5.366;2023-07-31T00:23:44;5.60;;;2.60;;
69485;SDS011;56677;51.710;5.366;2023-07-31T00:26:09;7.05;;;2.70;;
69485;SDS011;56677;51.710;5.366;2023-07-31T00:28:34;5.97;;;2.10;;
69485;SDS011;56677;51.710;5.366;2023-07-31T00:31:01;5.57;;;2.08;;
69485;SDS011;56677;51.710;5.366;2023-07-31T00:33:26;5.90;;;2.23;;
69485;SDS011;56677;51.710;5.366;2023-07-31T00:35:51;6.20;;;2.10;;
69485;SDS011;56677;51.710;5.366;2023-07-31T00:38:16;4.10;;;2.22;;
69485;SDS011;56677;51.710;5.366;2023-07-31T00:40:41;8.05;;;2.53;;
69485;SDS011;56677;51.710;5.366;2023-07-31T00:43:06;5.75;;;2.40;;
69485;SDS011;56677;51.710;5.366;2023-07-31T00:45:31;5.82;;;2.35;;
69485;SDS011;56677;51.710;5.366;2023-07-31T00:47:57;6.47;;;2.60;;
69485;SDS011;56677;51.710;5.366;2023-07-31T00:50:23;5.85;;;2.38;;
69485;SDS011;56677;51.710;5.366;2023-07-31T00:52:50;5.93;;;2.93;;
69485;SDS011;56677;51.710;5.366;2023-07-31T00:55:15;6.25;;;3.10;;
69485;SDS011;56677;51.710;5.366;2023-07-31T00:57:41;6.37;;;2.57;;
69485;SDS011;56677;51.710;5.366;2023-07-31T01:00:07;7.07;;;2.50;;
69485;SDS011;56677;51.710;5.366;2023-07-31T01:02:32;6.17;;;2.67;;
69485;SDS011;56677;51.710;5.366;2023-07-31T01:04:57;6.43;;;2.50;;
69485;SDS011;56677;51.710;5.366;2023-07-31T01:10:11;7.50;;;2.70;;
69485;SDS011;56677;51.710;5.366;2023-07-31T01:12:38;9.23;;;2.42;;
69485;SDS011;56677;51.710;5.366;2023-07-31T01:15:04;5.60;;;2.20;;
69485;SDS011;56677;51.710;5.366;2023-07-31T01:17:29;5.97;;;2.78;;
69485;SDS011;56677;51.710;5.366;2023-07-31T01:19:55;5.60;;;2.47;;
69485;SDS011;56677;51.710;5.366;2023-07-31T01:27:23;5.80;;;2.05;;
69485;SDS011;56677;51.710;5.366;2023-07-31T01:29:53;7.77;;;2.70;;
69485;SDS011;56677;51.710;5.366;2023-07-31T01:32:20;6.85;;;2.40;;
69485;SDS011;56677;51.710;5.366;2023-07-31T01:34:46;9.48;;;2.40;;
69485;SDS011;56677;51.710;5.366;2023-07-31T01:37:12;7.13;;;2.53;;
69485;SDS011;56677;51.710;5.366;2023-07-31T01:39:37;7.53;;;2.27;;
69485;SDS011;56677;51.710;5.366;2023-07-31T01:42:02;5.60;;;2.47;;
69485;SDS011;56677;51.710;5.366;2023-07-31T01:44:28;9.07;;;3.00;;
69485;SDS011;56677;51.710;5.366;2023-07-31T01:46:53;5.75;;;2.42;;
69485;SDS011;56677;51.710;5.366;2023-07-31T01:49:18;5.53;;;2.60;;
69485;SDS011;56677;51.710;5.366;2023-07-31T01:51:43;6.13;;;2.57;;
69485;SDS011;56677;51.710;5.366;2023-07-31T01:54:09;6.47;;;2.80;;
69485;SDS011;56677;51.710;5.366;2023-07-31T01:56:34;7.50;;;2.78;;
69485;SDS011;56677;51.710;5.366;2023-07-31T01:58:59;6.03;;;2.13;;
69485;SDS011;56677;51.710;5.366;2023-07-31T02:01:24;6.75;;;2.65;;
69485;SDS011;56677;51.710;5.366;2023-07-31T02:03:49;7.13;;;2.80;;
69485;SDS011;56677;51.710;5.366;2023-07-31T02:06:14;5.30;;;2.63;;
69485;SDS011;56677;51.710;5.366;2023-07-31T02:08:39;7.95;;;2.42;;
69485;SDS011;56677;51.710;5.366;2023-07-31T02:11:05;8.15;;;2.85;;
69485;SDS011;56677;51.710;5.366;2023-07-31T02:13:30;6.67;;;2.70;;
69485;SDS011;56677;51.710;5.366;2023-07-31T02:15:55;6.38;;;2.70;;
69485;SDS011;56677;51.710;5.366;2023-07-31T02:18:21;6.23;;;2.60;;
69485;SDS011;56677;51.710;5.366;2023-07-31T02:20:49;6.05;;;2.50;;
69485;SDS011;56677;51.710;5.366;2023-07-31T02:23:15;7.33;;;3.10;;
69485;SDS011;56677;51.710;5.366;2023-07-31T02:25:40;6.03;;;2.30;;
69485;SDS011;56677;51.710;5.366;2023-07-31T02:28:05;6.03;;;2.97;;
69485;SDS011;56677;51.710;5.366;2023-07-31T02:30:30;6.72;;;2.97;;
69485;SDS011;56677;51.710;5.366;2023-07-31T02:32:56;6.93;;;2.90;;
69485;SDS011;56677;51.710;5.366;2023-07-31T02:35:21;8.68;;;3.33;;
69485;SDS011;56677;51.710;5.366;2023-07-31T02:37:46;7.32;;;2.47;;
69485;SDS011;56677;51.710;5.366;2023-07-31T02:40:12;7.35;;;3.03;;
69485;SDS011;56677;51.710;5.366;2023-07-31T02:42:37;6.63;;;2.80;;
69485;SDS011;56677;51.710;5.366;2023-07-31T02:45:02;7.25;;;2.63;;
69485;SDS011;56677;51.710;5.366;2023-07-31T02:47:27;7.03;;;3.17;;
69485;SDS011;56677;51.710;5.366;2023-07-31T02:49:52;7.77;;;2.50;;
69485;SDS011;56677;51.710;5.366;2023-07-31T02:52:17;5.60;;;2.55;;
69485;SDS011;56677;51.710;5.366;2023-07-31T02:54:43;8.47;;;2.83;;
69485;SDS011;56677;51.710;5.366;2023-07-31T02:57:08;7.97;;;2.90;;
69485;SDS011;56677;51.710;5.366;2023-07-31T02:59:33;5.63;;;2.70;;
69485;SDS011;56677;51.710;5.366;2023-07-31T03:01:58;5.47;;;2.63;;
69485;SDS011;56677;51.710;5.366;2023-07-31T03:04:23;6.30;;;2.78;;
69485;SDS011;56677;51.710;5.366;2023-07-31T03:06:49;7.20;;;2.75;;
69485;SDS011;56677;51.710;5.366;2023-07-31T03:09:14;6.73;;;2.90;;
69485;SDS011;56677;51.710;5.366;2023-07-31T03:11:39;5.53;;;2.73;;
69485;SDS011;56677;51.710;5.366;2023-07-31T03:14:04;8.15;;;2.88;;
69485;SDS011;56677;51.710;5.366;2023-07-31T03:16:29;7.72;;;3.10;;
69485;SDS011;56677;51.710;5.366;2023-07-31T03:18:55;8.73;;;2.90;;
69485;SDS011;56677;51.710;5.366;2023-07-31T03:21:20;6.68;;;2.55;;
69485;SDS011;56677;51.710;5.366;2023-07-31T03:23:45;7.00;;;2.75;;
69485;SDS011;56677;51.710;5.366;2023-07-31T03:26:10;7.68;;;2.65;;
69485;SDS011;56677;51.710;5.366;2023-07-31T03:28:35;8.67;;;3.00;;
69485;SDS011;56677;51.710;5.366;2023-07-31T03:31:00;6.40;;;2.83;;
69485;SDS011;56677;51.710;5.366;2023-07-31T03:33:25;8.82;;;3.10;;
69485;SDS011;56677;51.710;5.366;2023-07-31T03:35:51;7.13;;;3.10;;
69485;SDS011;56677;51.710;5.366;2023-07-31T03:38:16;8.33;;;3.07;;
69485;SDS011;56677;51.710;5.366;2023-07-31T03:40:41;6.85;;;3.00;;
69485;SDS011;56677;51.710;5.366;2023-07-31T03:43:06;7.32;;;2.65;;
69485;SDS011;56677;51.710;5.366;2023-07-31T03:45:31;6.30;;;2.93;;
69485;SDS011;56677;51.710;5.366;2023-07-31T03:47:56;8.60;;;3.00;;
69485;SDS011;56677;51.710;5.366;2023-07-31T03:50:22;5.75;;;2.70;;
69485;SDS011;56677;51.710;5.366;2023-07-31T03:52:47;7.10;;;3.17;;
69485;SDS011;56677;51.710;5.366;2023-07-31T03:55:12;7.32;;;2.72;;
69485;SDS011;56677;51.710;5.366;2023-07-31T03:57:37;8.30;;;2.70;;
69485;SDS011;56677;51.710;5.366;2023-07-31T04:00:02;6.80;;;2.40;;
69485;SDS011;56677;51.710;5.366;2023-07-31T04:02:28;7.30;;;3.10;;
69485;SDS011;56677;51.710;5.366;2023-07-31T04:04:53;7.75;;;3.08;;
69485;SDS011;56677;51.710;5.366;2023-07-31T04:07:18;6.53;;;2.80;;
69485;SDS011;56677;51.710;5.366;2023-07-31T04:09:43;7.70;;;3.10;;
69485;SDS011;56677;51.710;5.366;2023-07-31T04:12:08;7.65;;;2.65;;
69485;SDS011;56677;51.710;5.366;2023-07-31T04:14:33;7.40;;;2.58;;
69485;SDS011;56677;51.710;5.366;2023-07-31T04:16:59;7.90;;;2.97;;
69485;SDS011;56677;51.710;5.366;2023-07-31T04:19:25;6.80;;;2.85;;
69485;SDS011;56677;51.710;5.366;2023-07-31T04:21:50;10.07;;;3.47;;
69485;SDS011;56677;51.710;5.366;2023-07-31T04:24:15;8.82;;;2.97;;
69485;SDS011;56677;51.710;5.366;2023-07-31T04:26:40;7.45;;;2.70;;
69485;SDS011;56677;51.710;5.366;2023-07-31T04:29:05;7.37;;;2.60;;
69485;SDS011;56677;51.710;5.366;2023-07-31T04:31:30;8.45;;;3.20;;
69485;SDS011;56677;51.710;5.366;2023-07-31T04:33:55;7.53;;;2.70;;
69485;SDS011;56677;51.710;5.366;2023-07-31T04:36:20;6.22;;;2.63;;
69485;SDS011;56677;51.710;5.366;2023-07-31T04:38:46;8.63;;;2.55;;
69485;SDS011;56677;51.710;5.366;2023-07-31T04:41:11;7.25;;;3.03;;
69485;SDS011;56677;51.710;5.366;2023-07-31T04:43:36;6.85;;;3.00;;
69485;SDS011;56677;51.710;5.366;2023-07-31T04:46:01;6.63;;;2.80;;
69485;SDS011;56677;51.710;5.366;2023-07-31T04:48:26;9.18;;;3.00;;
69485;SDS011;56677;51.710;5.366;2023-07-31T04:50:51;7.50;;;2.80;;
69485;SDS011;56677;51.710;5.366;2023-07-31T04:53:16;7.45;;;2.75;;
69485;SDS011;56677;51.710;5.366;2023-07-31T04:55:41;5.75;;;2.78;;
69485;SDS011;56677;51.710;5.366;2023-07-31T04:58:07;9.98;;;2.50;;
69485;SDS011;56677;51.710;5.366;2023-07-31T05:00:32;7.18;;;2.50;;
69485;SDS011;56677;51.710;5.366;2023-07-31T05:02:57;5.47;;;2.57;;
69485;SDS011;56677;51.710;5.366;2023-07-31T05:05:22;9.38;;;2.92;;
69485;SDS011;56677;51.710;5.366;2023-07-31T05:07:47;9.20;;;2.67;;
69485;SDS011;56677;51.710;5.366;2023-07-31T05:10:13;9.80;;;2.57;;
69485;SDS011;56677;51.710;5.366;2023-07-31T05:12:38;8.60;;;2.53;;
69485;SDS011;56677;51.710;5.366;2023-07-31T05:15:04;10.82;;;2.92;;
69485;SDS011;56677;51.710;5.366;2023-07-31T05:17:29;6.30;;;2.43;;
69485;SDS011;56677;51.710;5.366;2023-07-31T05:19:54;8.88;;;2.80;;
69485;SDS011;56677;51.710;5.366;2023-07-31T05:22:20;6.80;;;2.70;;
69485;SDS011;56677;51.710;5.366;2023-07-31T05:24:45;8.52;;;3.28;;
69485;SDS011;56677;51.710;5.366;2023-07-31T05:27:10;8.63;;;3.05;;
69485;SDS011;56677;51.710;5.366;2023-07-31T05:29:35;8.30;;;2.70;;
69485;SDS011;56677;51.710;5.366;2023-07-31T05:32:00;6.40;;;2.70;;
69485;SDS011;56677;51.710;5.366;2023-07-31T05:34:25;10.90;;;2.67;;
69485;SDS011;56677;51.710;5.366;2023-07-31T05:36:50;5.50;;;2.35;;
69485;SDS011;56677;51.710;5.366;2023-07-31T05:39:16;6.47;;;2.30;;
69485;SDS011;56677;51.710;5.366;2023-07-31T05:41:41;9.35;;;2.65;;
69485;SDS011;56677;51.710;5.366;2023-07-31T05:44:06;6.23;;;2.60;;
69485;SDS011;56677;51.710;5.366;2023-07-31T05:46:31;7.05;;;2.20;;
69485;SDS011;56677;51.710;5.366;2023-07-31T05:48:56;6.27;;;2.63;;
69485;SDS011;56677;51.710;5.366;2023-07-31T05:51:21;8.35;;;2.88;;
69485;SDS011;56677;51.710;5.366;2023-07-31T05:53:46;7.25;;;2.60;;
69485;SDS011;56677;51.710;5.366;2023-07-31T05:56:12;6.50;;;2.33;;
69485;SDS011;56677;51.710;5.366;2023-07-31T05:58:37;7.32;;;2.58;;
69485;SDS011;56677;51.710;5.366;2023-07-31T06:01:02;7.25;;;2.78;;
69485;SDS011;56677;51.710;5.366;2023-07-31T06:03:28;7.18;;;2.63;;
69485;SDS011;56677;51.710;5.366;2023-07-31T06:05:53;8.37;;;2.53;;
69485;SDS011;56677;51.710;5.366;2023-07-31T06:08:18;6.00;;;2.40;;
69485;SDS011;56677;51.710;5.366;2023-07-31T06:10:44;5.75;;;2.80;;
69485;SDS011;56677;51.710;5.366;2023-07-31T06:13:09;8.02;;;2.38;;
69485;SDS011;56677;51.710;5.366;2023-07-31T06:15:34;5.88;;;2.28;;
69485;SDS011;56677;51.710;5.366;2023-07-31T06:18:00;5.97;;;2.50;;
69485;SDS011;56677;51.710;5.366;2023-07-31T06:20:25;7.32;;;2.70;;
69485;SDS011;56677;51.710;5.366;2023-07-31T06:22:50;9.52;;;2.75;;
69485;SDS011;56677;51.710;5.366;2023-07-31T06:25:16;6.22;;;2.35;;
69485;SDS011;56677;51.710;5.366;2023-07-31T06:27:41;8.00;;;2.60;;
69485;SDS011;56677;51.710;5.366;2023-07-31T06:30:06;5.97;;;2.20;;
69485;SDS011;56677;51.710;5.366;2023-07-31T06:32:31;9.73;;;2.83;;
69485;SDS011;56677;51.710;5.366;2023-07-31T06:34:56;5.97;;;2.80;;
69485;SDS011;56677;51.710;5.366;2023-07-31T06:37:21;4.78;;;2.40;;
69485;SDS011;56677;51.710;5.366;2023-07-31T06:39:47;10.55;;;2.65;;
69485;SDS011;56677;51.710;5.366;2023-07-31T06:42:12;6.53;;;2.20;;
69485;SDS011;56677;51.710;5.366;2023-07-31T06:44:37;5.05;;;1.73;;
69485;SDS011;56677;51.710;5.366;2023-07-31T06:47:02;6.55;;;2.17;;
69485;SDS011;56677;51.710;5.366;2023-07-31T06:49:27;6.93;;;2.67;;
69485;SDS011;56677;51.710;5.366;2023-07-31T06:51:52;5.13;;;2.20;;
69485;SDS011;56677;51.710;5.366;2023-07-31T06:54:17;5.38;;;2.30;;
69485;SDS011;56677;51.710;5.366;2023-07-31T06:56:43;7.07;;;2.67;;
69485;SDS011;56677;51.710;5.366;2023-07-31T06:59:08;6.10;;;2.10;;
69485;SDS011;56677;51.710;5.366;2023-07-31T07:01:33;4.63;;;2.27;;
69485;SDS011;56677;51.710;5.366;2023-07-31T07:03:58;6.10;;;2.60;;
69485;SDS011;56677;51.710;5.366;2023-07-31T07:06:23;4.65;;;2.05;;
69485;SDS011;56677;51.710;5.366;2023-07-31T07:08:48;4.20;;;1.85;;
69485;SDS011;56677;51.710;5.366;2023-07-31T07:11:13;5.82;;;2.03;;
69485;SDS011;56677;51.710;5.366;2023-07-31T07:13:38;4.80;;;2.17;;
69485;SDS011;56677;51.710;5.366;2023-07-31T07:16:03;5.13;;;2.13;;
69485;SDS011;56677;51.710;5.366;2023-07-31T07:18:29;6.85;;;2.20;;
69485;SDS011;56677;51.710;5.366;2023-07-31T07:20:54;6.05;;;2.08;;
69485;SDS011;56677;51.710;5.366;2023-07-31T07:23:20;4.67;;;2.53;;
69485;SDS011;56677;51.710;5.366;2023-07-31T07:25:45;4.53;;;2.20;;
69485;SDS011;56677;51.710;5.366;2023-07-31T07:28:10;5.05;;;1.83;;
69485;SDS011;56677;51.710;5.366;2023-07-31T07:30:36;5.87;;;1.97;;
69485;SDS011;56677;51.710;5.366;2023-07-31T07:33:01;4.53;;;2.10;;
69485;SDS011;56677;51.710;5.366;2023-07-31T07:35:26;4.30;;;1.73;;
69485;SDS011;56677;51.710;5.366;2023-07-31T07:37:51;4.97;;;2.30;;
69485;SDS011;56677;51.710;5.366;2023-07-31T07:40:16;6.10;;;2.28;;
69485;SDS011;56677;51.710;5.366;2023-07-31T07:42:41;5.13;;;2.40;;
69485;SDS011;56677;51.710;5.366;2023-07-31T07:45:08;4.60;;;2.00;;
69485;SDS011;56677;51.710;5.366;2023-07-31T07:47:34;5.82;;;1.98;;
69485;SDS011;56677;51.710;5.366;2023-07-31T07:49:59;4.55;;;1.95;;
69485;SDS011;56677;51.710;5.366;2023-07-31T07:52:24;4.80;;;1.93;;
69485;SDS011;56677;51.710;5.366;2023-07-31T07:54:49;4.70;;;2.30;;
69485;SDS011;56677;51.710;5.366;2023-07-31T07:57:14;4.20;;;1.93;;
69485;SDS011;56677;51.710;5.366;2023-07-31T07:59:40;4.18;;;2.00;;
69485;SDS011;56677;51.710;5.366;2023-07-31T08:02:05;3.42;;;1.77;;
69485;SDS011;56677;51.710;5.366;2023-07-31T08:04:33;5.75;;;1.92;;
69485;SDS011;56677;51.710;5.366;2023-07-31T08:06:58;3.90;;;1.90;;
69485;SDS011;56677;51.710;5.366;2023-07-31T08:09:24;4.03;;;2.00;;
69485;SDS011;56677;51.710;5.366;2023-07-31T08:11:49;5.30;;;2.17;;
69485;SDS011;56677;51.710;5.366;2023-07-31T08:14:14;3.28;;;1.90;;
69485;SDS011;56677;51.710;5.366;2023-07-31T08:16:39;5.20;;;2.07;;
69485;SDS011;56677;51.710;5.366;2023-07-31T08:19:05;4.47;;;2.00;;
69485;SDS011;56677;51.710;5.366;2023-07-31T08:21:31;4.13;;;2.00;;
69485;SDS011;56677;51.710;5.366;2023-07-31T08:23:56;4.50;;;1.88;;
69485;SDS011;56677;51.710;5.366;2023-07-31T08:26:21;3.77;;;1.93;;
69485;SDS011;56677;51.710;5.366;2023-07-31T08:28:46;4.47;;;2.30;;
69485;SDS011;56677;51.710;5.366;2023-07-31T08:31:11;3.50;;;1.73;;
69485;SDS011;56677;51.710;5.366;2023-07-31T08:33:37;4.20;;;1.95;;
69485;SDS011;56677;51.710;5.366;2023-07-31T08:36:02;3.30;;;1.50;;
69485;SDS011;56677;51.710;5.366;2023-07-31T08:38:27;4.23;;;2.10;;
69485;SDS011;56677;51.710;5.366;2023-07-31T08:40:53;3.63;;;1.77;;
69485;SDS011;56677;51.710;5.366;2023-07-31T08:43:18;3.27;;;1.87;;
69485;SDS011;56677;51.710;5.366;2023-07-31T08:45:43;3.35;;;1.85;;
69485;SDS011;56677;51.710;5.366;2023-07-31T08:48:09;4.03;;;1.90;;
69485;SDS011;56677;51.710;5.366;2023-07-31T08:50:34;3.53;;;1.77;;
69485;SDS011;56677;51.710;5.366;2023-07-31T08:52:59;3.40;;;1.93;;
69485;SDS011;56677;51.710;5.366;2023-07-31T08:55:25;4.03;;;2.10;;
69485;SDS011;56677;51.710;5.366;2023-07-31T08:57:51;4.85;;;1.95;;
69485;SDS011;56677;51.710;5.366;2023-07-31T09:00:16;3.97;;;1.85;;
69485;SDS011;56677;51.710;5.366;2023-07-31T09:05:12;3.97;;;1.60;;
69485;SDS011;56677;51.710;5.366;2023-07-31T09:07:38;3.80;;;1.75;;
69485;SDS011;56677;51.710;5.366;2023-07-31T09:10:04;3.63;;;1.70;;
69485;SDS011;56677;51.710;5.366;2023-07-31T09:12:29;3.80;;;1.85;;
69485;SDS011;56677;51.710;5.366;2023-07-31T09:14:55;3.57;;;1.93;;
69485;SDS011;56677;51.710;5.366;2023-07-31T09:19:55;3.80;;;1.88;;
69485;SDS011;56677;51.710;5.366;2023-07-31T09:22:34;3.77;;;1.97;;
69485;SDS011;56677;51.710;5.366;2023-07-31T09:25:06;5.25;;;2.50;;
69485;SDS011;56677;51.710;5.366;2023-07-31T09:27:54;3.63;;;2.22;;
69485;SDS011;56677;51.710;5.366;2023-07-31T09:30:19;3.47;;;2.08;;
69485;SDS011;56677;51.710;5.366;2023-07-31T09:32:45;3.93;;;2.07;;
69485;SDS011;56677;51.710;5.366;2023-07-31T09:35:18;4.97;;;2.00;;
69485;SDS011;56677;51.710;5.366;2023-07-31T09:37:47;3.97;;;2.00;;
69485;SDS011;56677;51.710;5.366;2023-07-31T09:40:14;3.70;;;2.00;;
69485;SDS011;56677;51.710;5.366;2023-07-31T09:42:49;3.60;;;1.90;;
69485;SDS011;56677;51.710;5.366;2023-07-31T09:45:14;3.30;;;1.80;;
69485;SDS011;56677;51.710;5.366;2023-07-31T09:47:39;5.30;;;2.50;;
69485;SDS011;56677;51.710;5.366;2023-07-31T09:50:10;5.38;;;2.03;;
69485;SDS011;56677;51.710;5.366;2023-07-31T09:52:37;3.85;;;2.03;;
69485;SDS011;56677;51.710;5.366;2023-07-31T09:55:03;4.60;;;1.90;;
69485;SDS011;56677;51.710;5.366;2023-07-31T09:57:28;3.50;;;1.97;;
69485;SDS011;56677;51.710;5.366;2023-07-31T09:59:53;3.33;;;1.80;;
69485;SDS011;56677;51.710;5.366;2023-07-31T10:02:20;4.10;;;1.93;;
69485;SDS011;56677;51.710;5.366;2023-07-31T10:04:46;2.95;;;1.60;;
69485;SDS011;56677;51.710;5.366;2023-07-31T10:07:13;6.80;;;2.20;;
69485;SDS011;56677;51.710;5.366;2023-07-31T10:09:38;3.05;;;1.40;;
69485;SDS011;56677;51.710;5.366;2023-07-31T10:12:04;3.87;;;1.90;;
69485;SDS011;56677;51.710;5.366;2023-07-31T10:14:32;3.58;;;2.17;;
69485;SDS011;56677;51.710;5.366;2023-07-31T10:16:57;4.30;;;2.30;;
69485;SDS011;56677;51.710;5.366;2023-07-31T10:19:23;4.47;;;2.07;;
69485;SDS011;56677;51.710;5.366;2023-07-31T10:21:48;4.50;;;2.00;;
69485;SDS011;56677;51.710;5.366;2023-07-31T10:24:14;4.22;;;2.00;;
69485;SDS011;56677;51.710;5.366;2023-07-31T10:26:39;5.00;;;1.80;;
69485;SDS011;56677;51.710;5.366;2023-07-31T10:29:06;5.07;;;2.30;;
69485;SDS011;56677;51.710;5.366;2023-07-31T10:31:31;3.63;;;2.10;;
69485;SDS011;56677;51.710;5.366;2023-07-31T10:33:57;4.55;;;2.13;;
69485;SDS011;56677;51.710;5.366;2023-07-31T10:36:23;3.87;;;1.87;;
69485;SDS011;56677;51.710;5.366;2023-07-31T10:38:52;4.53;;;2.15;;
69485;SDS011;56677;51.710;5.366;2023-07-31T10:41:17;4.78;;;2.10;;
69485;SDS011;56677;51.710;5.366;2023-07-31T10:43:42;4.35;;;2.25;;
69485;SDS011;56677;51.710;5.366;2023-07-31T10:46:08;3.70;;;1.90;;
69485;SDS011;56677;51.710;5.366;2023-07-31T10:48:33;5.43;;;2.07;;
69485;SDS011;56677;51.710;5.366;2023-07-31T10:50:59;4.20;;;2.50;;
69485;SDS011;56677;51.710;5.366;2023-07-31T10:53:24;4.13;;;2.17;;
69485;SDS011;56677;51.710;5.366;2023-07-31T10:55:50;4.50;;;2.10;;
69485;SDS011;56677;51.710;5.366;2023-07-31T10:58:15;6.97;;;1.83;;
69485;SDS011;56677;51.710;5.366;2023-07-31T11:00:43;4.13;;;2.03;;
69485;SDS011;56677;51.710;5.366;2023-07-31T11:03:09;3.70;;;1.80;;
69485;SDS011;56677;51.710;5.366;2023-07-31T11:10:40;4.50;;;2.47;;
69485;SDS011;56677;51.710;5.366;2023-07-31T11:13:05;3.87;;;2.30;;
69485;SDS011;56677;51.710;5.366;2023-07-31T11:15:31;3.25;;;1.90;;
69485;SDS011;56677;51.710;5.366;2023-07-31T11:17:56;3.60;;;1.90;;
69485;SDS011;56677;51.710;5.366;2023-07-31T11:20:23;4.20;;;2.22;;
69485;SDS011;56677;51.710;5.366;2023-07-31T11:22:48;3.28;;;1.90;;
69485;SDS011;56677;51.710;5.366;2023-07-31T11:25:14;5.60;;;2.13;;
69485;SDS011;56677;51.710;5.366;2023-07-31T11:27:39;3.73;;;2.00;;
69485;SDS011;56677;51.710;5.366;2023-07-31T11:30:05;3.67;;;2.10;;
69485;SDS011;56677;51.710;5.366;2023-07-31T11:32:30;4.63;;;2.27;;
69485;SDS011;56677;51.710;5.366;2023-07-31T11:34:56;4.88;;;2.30;;
69485;SDS011;56677;51.710;5.366;2023-07-31T11:37:22;4.32;;;2.33;;
69485;SDS011;56677;51.710;5.366;2023-07-31T11:39:59;3.88;;;1.90;;
69485;SDS011;56677;51.710;5.366;2023-07-31T11:42:26;3.97;;;2.10;;
69485;SDS011;56677;51.710;5.366;2023-07-31T11:44:51;5.10;;;2.17;;
69485;SDS011;56677;51.710;5.366;2023-07-31T11:47:16;4.43;;;2.50;;
69485;SDS011;56677;51.710;5.366;2023-07-31T11:49:41;4.20;;;2.38;;
69485;SDS011;56677;51.710;5.366;2023-07-31T11:52:07;5.97;;;2.33;;
69485;SDS011;56677;51.710;5.366;2023-07-31T11:54:32;4.53;;;2.13;;
69485;SDS011;56677;51.710;5.366;2023-07-31T11:56:57;4.70;;;2.00;;
69485;SDS011;56677;51.710;5.366;2023-07-31T11:59:22;3.83;;;2.10;;
69485;SDS011;56677;51.710;5.366;2023-07-31T12:01:48;5.83;;;2.40;;
69485;SDS011;56677;51.710;5.366;2023-07-31T12:04:13;4.03;;;2.33;;
69485;SDS011;56677;51.710;5.366;2023-07-31T12:06:38;4.93;;;2.33;;
69485;SDS011;56677;51.710;5.366;2023-07-31T12:09:03;4.25;;;2.38;;
69485;SDS011;56677;51.710;5.366;2023-07-31T12:11:28;3.23;;;1.90;;
69485;SDS011;56677;51.710;5.366;2023-07-31T12:13:54;4.93;;;1.95;;
69485;SDS011;56677;51.710;5.366;2023-07-31T12:16:19;4.35;;;2.40;;
69485;SDS011;56677;51.710;5.366;2023-07-31T12:18:44;5.13;;;2.40;;
69485;SDS011;56677;51.710;5.366;2023-07-31T12:21:10;3.88;;;2.20;;
69485;SDS011;56677;51.710;5.366;2023-07-31T12:23:35;4.53;;;2.17;;
69485;SDS011;56677;51.710;5.366;2023-07-31T12:31:04;3.75;;;1.90;;
69485;SDS011;56677;51.710;5.366;2023-07-31T12:33:33;3.92;;;2.40;;
69485;SDS011;56677;51.710;5.366;2023-07-31T12:36:00;3.45;;;2.10;;
69485;SDS011;56677;51.710;5.366;2023-07-31T12:38:25;4.20;;;2.40;;
69485;SDS011;56677;51.710;5.366;2023-07-31T12:40:51;3.07;;;1.60;;
69485;SDS011;56677;51.710;5.366;2023-07-31T12:43:16;4.70;;;2.30;;
69485;SDS011;56677;51.710;5.366;2023-07-31T12:45:41;5.53;;;2.33;;
69485;SDS011;56677;51.710;5.366;2023-07-31T12:48:06;3.45;;;2.13;;
69485;SDS011;56677;51.710;5.366;2023-07-31T12:50:31;4.67;;;1.93;;
69485;SDS011;56677;51.710;5.366;2023-07-31T12:52:56;3.47;;;1.73;;
69485;SDS011;56677;51.710;5.366;2023-07-31T12:55:22;3.77;;;2.03;;
69485;SDS011;56677;51.710;5.366;2023-07-31T12:57:47;4.15;;;2.25;;
69485;SDS011;56677;51.710;5.366;2023-07-31T13:00:13;3.50;;;1.87;;
69485;SDS011;56677;51.710;5.366;2023-07-31T13:02:38;2.87;;;1.77;;
69485;SDS011;56677;51.710;5.366;2023-07-31T13:05:03;4.30;;;2.30;;
69485;SDS011;56677;51.710;5.366;2023-07-31T13:07:28;3.43;;;2.10;;
69485;SDS011;56677;51.710;5.366;2023-07-31T13:09:53;3.73;;;2.30;;
69485;SDS011;56677;51.710;5.366;2023-07-31T13:12:19;4.28;;;1.92;;
69485;SDS011;56677;51.710;5.366;2023-07-31T13:14:44;4.32;;;2.00;;
69485;SDS011;56677;51.710;5.366;2023-07-31T13:17:09;3.88;;;1.95;;
69485;SDS011;56677;51.710;5.366;2023-07-31T13:19:34;3.40;;;2.10;;
69485;SDS011;56677;51.710;5.366;2023-07-31T13:21:59;4.57;;;2.30;;
69485;SDS011;56677;51.710;5.366;2023-07-31T13:24:24;2.50;;;1.40;;
69485;SDS011;56677;51.710;5.366;2023-07-31T13:26:51;3.73;;;2.10;;
69485;SDS011;56677;51.710;5.366;2023-07-31T13:29:16;3.53;;;2.00;;
69485;SDS011;56677;51.710;5.366;2023-07-31T13:31:41;4.75;;;2.05;;
69485;SDS011;56677;51.710;5.366;2023-07-31T13:34:06;3.83;;;1.93;;
69485;SDS011;56677;51.710;5.366;2023-07-31T13:36:31;3.08;;;1.88;;
69485;SDS011;56677;51.710;5.366;2023-07-31T13:38:57;3.60;;;1.87;;
69485;SDS011;56677;51.710;5.366;2023-07-31T13:41:22;4.23;;;2.10;;
69485;SDS011;56677;51.710;5.366;2023-07-31T13:43:47;3.63;;;2.13;;
69485;SDS011;56677;51.710;5.366;2023-07-31T13:46:12;4.10;;;2.33;;
69485;SDS011;56677;51.710;5.366;2023-07-31T13:48:37;3.97;;;2.10;;
69485;SDS011;56677;51.710;5.366;2023-07-31T13:51:02;4.40;;;2.10;;
69485;SDS011;56677;51.710;5.366;2023-07-31T13:53:28;4.47;;;2.10;;
69485;SDS011;56677;51.710;5.366;2023-07-31T13:55:55;3.63;;;2.13;;
69485;SDS011;56677;51.710;5.366;2023-07-31T13:58:21;3.55;;;2.08;;
69485;SDS011;56677;51.710;5.366;2023-07-31T14:00:46;4.22;;;2.22;;
69485;SDS011;56677;51.710;5.366;2023-07-31T14:03:11;4.28;;;2.08;;
69485;SDS011;56677;51.710;5.366;2023-07-31T14:05:36;3.23;;;2.10;;
69485;SDS011;56677;51.710;5.366;2023-07-31T14:08:02;3.28;;;1.95;;
69485;SDS011;56677;51.710;5.366;2023-07-31T14:10:27;5.00;;;2.20;;
69485;SDS011;56677;51.710;5.366;2023-07-31T14:12:53;5.43;;;2.33;;
69485;SDS011;56677;51.710;5.366;2023-07-31T14:15:18;3.93;;;2.03;;
69485;SDS011;56677;51.710;5.366;2023-07-31T14:17:43;4.32;;;2.25;;
69485;SDS011;56677;51.710;5.366;2023-07-31T14:20:08;4.13;;;2.10;;
69485;SDS011;56677;51.710;5.366;2023-07-31T14:22:35;4.90;;;2.53;;
69485;SDS011;56677;51.710;5.366;2023-07-31T14:25:01;4.53;;;2.35;;
69485;SDS011;56677;51.710;5.366;2023-07-31T14:27:26;4.10;;;2.23;;
69485;SDS011;56677;51.710;5.366;2023-07-31T14:29:51;4.13;;;2.40;;
69485;SDS011;56677;51.710;5.366;2023-07-31T14:32:16;3.97;;;2.20;;
69485;SDS011;56677;51.710;5.366;2023-07-31T14:34:41;4.85;;;2.10;;
69485;SDS011;56677;51.710;5.366;2023-07-31T14:37:06;3.90;;;1.97;;
69485;SDS011;56677;51.710;5.366;2023-07-31T14:39:31;4.53;;;2.47;;
69485;SDS011;56677;51.710;5.366;2023-07-31T14:41:57;4.45;;;2.40;;
69485;SDS011;56677;51.710;5.366;2023-07-31T14:44:22;4.72;;;2.53;;
69485;SDS011;56677;51.710;5.366;2023-07-31T14:46:47;3.80;;;2.13;;
69485;SDS011;56677;51.710;5.366;2023-07-31T14:49:12;4.27;;;2.40;;
69485;SDS011;56677;51.710;5.366;2023-07-31T14:51:37;4.93;;;2.37;;
69485;SDS011;56677;51.710;5.366;2023-07-31T14:54:02;6.13;;;2.37;;
69485;SDS011;56677;51.710;5.366;2023-07-31T14:56:28;4.20;;;1.70;;
69485;SDS011;56677;51.710;5.366;2023-07-31T14:58:53;4.78;;;2.00;;
69485;SDS011;56677;51.710;5.366;2023-07-31T15:01:18;5.57;;;2.63;;